createdAt,value
2023-04-30T00:02:09.350Z,5.50
2023-04-30T00:04:37.052Z,6.50
2023-04-30T00:07:04.079Z,7.30
2023-04-30T00:09:30.743Z,6.78
2023-04-30T00:11:57.564Z,6.40
2023-04-30T00:14:24.320Z,7.30
2023-04-30T00:16:51.167Z,7.43
2023-04-30T00:19:17.930Z,6.50
2023-04-30T00:21:44.709Z,6.68
2023-04-30T00:24:11.327Z,5.68
2023-04-30T00:26:39.157Z,5.43
2023-04-30T00:29:05.748Z,5.40
2023-04-30T00:31:32.391Z,5.22
2023-04-30T00:33:59.105Z,4.78
2023-04-30T00:36:25.865Z,5.22
2023-04-30T00:38:52.583Z,4.30
2023-04-30T00:41:21.203Z,4.72
2023-04-30T00:43:47.811Z,4.70
2023-04-30T00:46:14.465Z,5.25
2023-04-30T00:48:41.186Z,4.90
2023-04-30T00:51:08.418Z,5.60
2023-04-30T00:53:36.314Z,5.68
2023-04-30T00:56:02.980Z,5.35
2023-04-30T00:58:30.131Z,5.43
2023-04-30T01:00:57.075Z,5.55
2023-04-30T01:03:24.169Z,4.72
2023-04-30T01:05:50.831Z,5.28
2023-04-30T01:08:17.760Z,4.40
2023-04-30T01:11:17.584Z,5.68
2023-04-30T01:14:08.306Z,5.28
2023-04-30T01:16:51.300Z,6.13
2023-04-30T01:19:41.031Z,8.10
2023-04-30T01:22:12.054Z,8.55
2023-04-30T01:25:00.378Z,8.40
2023-04-30T01:27:48.604Z,9.48
2023-04-30T01:30:17.253Z,9.90
2023-04-30T01:32:43.895Z,9.30
2023-04-30T01:35:10.732Z,9.52
2023-04-30T01:38:00.185Z,9.27
2023-04-30T01:40:26.776Z,10.30
2023-04-30T01:43:18.368Z,9.15
2023-04-30T01:45:56.880Z,9.65
2023-04-30T01:48:51.219Z,9.75
2023-04-30T01:51:30.776Z,9.63
2023-04-30T01:54:00.624Z,8.50
2023-04-30T01:56:32.751Z,8.68
2023-04-30T01:59:00.864Z,7.93
2023-04-30T02:01:29.022Z,9.07
2023-04-30T02:03:55.926Z,10.07
2023-04-30T02:06:28.471Z,8.57
2023-04-30T02:08:56.762Z,9.02
2023-04-30T02:11:24.706Z,8.63
2023-04-30T02:13:51.768Z,8.75
2023-04-30T02:16:18.674Z,7.82
2023-04-30T02:18:45.995Z,9.00
2023-04-30T02:21:12.765Z,8.40
2023-04-30T02:23:39.343Z,8.20
2023-04-30T02:26:06.072Z,8.52
2023-04-30T02:28:32.672Z,9.38
2023-04-30T02:30:59.383Z,8.57
2023-04-30T02:33:26.066Z,8.95
2023-04-30T02:35:52.699Z,8.75
2023-04-30T02:38:19.331Z,8.75
2023-04-30T02:40:45.930Z,8.35
2023-04-30T02:43:12.531Z,9.65
2023-04-30T02:45:39.198Z,8.57
2023-04-30T02:48:06.072Z,9.00
2023-04-30T02:50:33.014Z,9.75
2023-04-30T02:53:00.040Z,9.23
2023-04-30T02:55:26.778Z,8.73
2023-04-30T02:57:53.506Z,8.93
2023-04-30T03:00:20.286Z,8.05
2023-04-30T03:02:47.034Z,8.57
2023-04-30T03:05:15.811Z,9.05
2023-04-30T03:07:42.536Z,9.80
2023-04-30T03:10:10.001Z,9.50
2023-04-30T03:12:36.707Z,8.77
2023-04-30T03:15:03.823Z,8.57
2023-04-30T03:17:30.491Z,9.90
2023-04-30T03:19:57.239Z,8.98
2023-04-30T03:22:26.742Z,9.13
2023-04-30T03:24:53.436Z,8.55
2023-04-30T03:27:20.213Z,8.20
2023-04-30T03:29:46.879Z,9.07
2023-04-30T03:32:13.520Z,8.18
2023-04-30T03:34:40.152Z,8.85
2023-04-30T03:37:06.728Z,8.35
2023-04-30T03:39:33.402Z,8.60
2023-04-30T03:42:00.446Z,8.23
2023-04-30T03:44:27.146Z,9.10
2023-04-30T03:46:53.784Z,9.07
2023-04-30T03:49:20.460Z,8.55
2023-04-30T03:51:47.532Z,9.00
2023-04-30T03:54:14.138Z,9.40
2023-04-30T03:56:41.243Z,8.15
2023-04-30T03:59:08.153Z,9.77
2023-04-30T04:01:34.903Z,9.30
2023-04-30T04:04:02.476Z,8.35
2023-04-30T04:06:29.317Z,9.68
2023-04-30T04:08:56.235Z,9.50
2023-04-30T04:11:22.958Z,9.70
2023-04-30T04:13:49.632Z,9.85
2023-04-30T04:16:16.333Z,9.45
2023-04-30T04:18:43.404Z,8.55
2023-04-30T04:21:10.092Z,7.40
2023-04-30T04:23:36.723Z,7.13
2023-04-30T04:26:03.372Z,5.28
2023-04-30T04:28:30.161Z,5.22
2023-04-30T04:30:56.843Z,5.00
2023-04-30T04:33:23.411Z,4.68
2023-04-30T04:35:50.019Z,6.28
2023-04-30T04:38:16.716Z,4.40
2023-04-30T04:40:51.589Z,4.85
2023-04-30T04:43:18.454Z,5.82
2023-04-30T04:45:45.187Z,4.90
2023-04-30T04:48:11.857Z,4.97
2023-04-30T04:50:38.579Z,4.75
2023-04-30T04:53:05.312Z,5.40
2023-04-30T04:55:32.237Z,4.75
2023-04-30T04:57:58.895Z,5.07
2023-04-30T05:00:25.962Z,6.00
2023-04-30T05:02:53.591Z,5.45
2023-04-30T05:05:20.524Z,6.10
2023-04-30T05:07:47.224Z,5.30
2023-04-30T05:10:14.134Z,5.05
2023-04-30T05:12:40.969Z,6.43
2023-04-30T05:15:08.109Z,6.43
2023-04-30T05:17:34.856Z,6.40
2023-04-30T05:20:01.899Z,6.32
2023-04-30T05:22:28.591Z,5.43
2023-04-30T05:24:55.971Z,6.45
2023-04-30T05:27:22.664Z,5.68
2023-04-30T05:29:49.412Z,5.53
2023-04-30T05:32:16.436Z,6.45
2023-04-30T05:34:43.067Z,5.60
2023-04-30T05:37:09.784Z,4.68
2023-04-30T05:39:36.415Z,4.68
2023-04-30T05:42:03.486Z,4.25
2023-04-30T05:44:33.090Z,3.78
2023-04-30T05:46:59.785Z,3.35
2023-04-30T05:49:27.497Z,3.33
2023-04-30T05:51:54.198Z,3.60
2023-04-30T05:54:20.848Z,4.43
2023-04-30T05:56:47.806Z,3.67
2023-04-30T05:59:14.453Z,3.40
2023-04-30T06:01:41.876Z,4.50
2023-04-30T06:04:09.429Z,4.35
2023-04-30T06:06:41.327Z,3.85
2023-04-30T06:09:08.277Z,4.18
2023-04-30T06:11:35.208Z,4.10
2023-04-30T06:14:06.058Z,4.70
2023-04-30T06:16:33.364Z,3.90
2023-04-30T06:19:00.455Z,3.97
2023-04-30T06:21:27.354Z,4.30
2023-04-30T06:23:54.162Z,4.30
2023-04-30T06:26:21.005Z,4.63
2023-04-30T06:28:47.645Z,4.20
2023-04-30T06:31:14.490Z,4.85
2023-04-30T06:33:41.196Z,4.43
2023-04-30T06:36:07.806Z,4.85
2023-04-30T06:38:34.440Z,4.13
2023-04-30T06:41:01.085Z,3.40
2023-04-30T06:43:27.762Z,5.88
2023-04-30T06:45:54.414Z,3.75
2023-04-30T06:48:21.084Z,3.95
2023-04-30T06:50:47.646Z,3.30
2023-04-30T06:53:15.278Z,4.40
2023-04-30T06:55:43.075Z,3.50
2023-04-30T06:58:09.810Z,4.20
2023-04-30T07:00:36.633Z,4.07
2023-04-30T07:03:04.894Z,3.38
2023-04-30T07:05:32.117Z,3.95
2023-04-30T07:08:01.447Z,4.05
2023-04-30T07:10:28.174Z,4.00
2023-04-30T07:12:55.288Z,3.90
2023-04-30T07:15:22.007Z,4.20
2023-04-30T07:17:48.770Z,4.22
2023-04-30T07:20:15.967Z,3.72
2023-04-30T07:22:45.859Z,4.85
2023-04-30T07:25:15.939Z,4.10
2023-04-30T07:27:42.647Z,4.07
2023-04-30T07:30:10.698Z,3.70
2023-04-30T07:32:38.230Z,4.13
2023-04-30T07:35:05.354Z,5.03
2023-04-30T07:37:34.912Z,4.95
2023-04-30T07:40:02.466Z,3.83
2023-04-30T07:42:29.148Z,3.80
2023-04-30T07:44:55.740Z,3.63
2023-04-30T07:47:22.524Z,3.67
2023-04-30T07:49:49.924Z,4.38
2023-04-30T07:52:16.755Z,3.70
2023-04-30T07:54:43.421Z,3.50
2023-04-30T07:57:10.078Z,3.42
2023-04-30T07:59:36.662Z,3.13
2023-04-30T08:02:03.882Z,3.88
2023-04-30T08:04:30.839Z,2.97
2023-04-30T08:06:57.540Z,3.10
2023-04-30T08:09:24.313Z,2.97
2023-04-30T08:11:51.372Z,2.35
2023-04-30T08:14:18.053Z,2.75
2023-04-30T08:16:44.898Z,2.78
2023-04-30T08:19:11.615Z,2.22
2023-04-30T08:21:39.034Z,2.53
2023-04-30T08:24:05.919Z,2.58
2023-04-30T08:26:32.594Z,2.50
2023-04-30T08:28:59.248Z,2.70
2023-04-30T08:31:26.076Z,2.08
2023-04-30T08:33:52.910Z,2.10
2023-04-30T08:36:19.837Z,2.55
2023-04-30T08:38:46.731Z,2.10
2023-04-30T08:41:18.782Z,2.60
2023-04-30T08:46:13.985Z,1.63
2023-04-30T08:48:41.635Z,2.22
2023-04-30T08:51:08.466Z,2.10
2023-04-30T08:53:38.439Z,1.83
2023-04-30T08:56:05.956Z,1.98
2023-04-30T08:58:32.954Z,2.13
2023-04-30T09:01:00.764Z,1.85
2023-04-30T09:03:28.565Z,1.90
2023-04-30T09:05:55.572Z,4.18
2023-04-30T09:11:30.599Z,2.30
2023-04-30T09:14:01.888Z,1.90
2023-04-30T09:16:33.829Z,2.20
2023-04-30T09:24:24.142Z,2.40
2023-04-30T09:26:51.753Z,2.10
2023-04-30T09:29:18.614Z,2.42
2023-04-30T09:32:01.354Z,2.08
2023-04-30T09:34:35.971Z,2.28
2023-04-30T09:37:02.664Z,2.17
2023-04-30T09:39:30.051Z,2.70
2023-04-30T09:42:10.150Z,2.53
2023-04-30T09:44:44.527Z,2.45
2023-04-30T09:47:15.992Z,2.10
2023-04-30T09:49:45.808Z,1.90
2023-04-30T09:52:12.837Z,2.05
2023-04-30T09:54:41.193Z,1.42
2023-04-30T09:57:11.454Z,1.77
2023-04-30T09:59:39.864Z,2.65
2023-04-30T10:02:08.841Z,2.35
2023-04-30T10:04:42.957Z,2.10
2023-04-30T10:07:15.619Z,1.77
2023-04-30T10:09:59.886Z,1.90
2023-04-30T10:12:44.664Z,1.40
2023-04-30T10:15:17.722Z,1.65
2023-04-30T10:17:50.211Z,1.60
2023-04-30T10:20:19.209Z,1.50
2023-04-30T10:22:48.660Z,1.75
2023-04-30T10:25:16.507Z,1.60
2023-04-30T10:27:43.712Z,1.92
2023-04-30T10:30:11.939Z,1.63
2023-04-30T10:32:57.813Z,2.63
2023-04-30T10:35:33.562Z,1.83
2023-04-30T10:38:17.019Z,1.92
2023-04-30T10:40:47.307Z,1.75
2023-04-30T10:43:14.182Z,1.40
2023-04-30T10:45:46.774Z,1.83
2023-04-30T10:48:16.083Z,1.20
2023-04-30T10:50:46.199Z,1.38
2023-04-30T10:53:16.202Z,1.23
2023-04-30T10:56:06.645Z,1.73
2023-04-30T10:58:35.739Z,1.17
2023-04-30T11:01:12.215Z,1.48
2023-04-30T11:03:41.298Z,1.30
2023-04-30T11:06:15.969Z,1.95
2023-04-30T11:08:47.612Z,1.65
2023-04-30T11:11:24.011Z,2.17
2023-04-30T11:14:01.340Z,2.38
2023-04-30T11:16:34.394Z,1.88
2023-04-30T11:19:11.681Z,2.58
2023-04-30T11:21:42.958Z,2.03
2023-04-30T11:24:23.353Z,2.03
2023-04-30T11:27:15.413Z,1.52
2023-04-30T11:29:44.159Z,1.40
2023-04-30T11:32:11.099Z,1.38
2023-04-30T11:34:39.093Z,1.50
2023-04-30T11:37:07.037Z,1.50
2023-04-30T11:39:37.314Z,1.48
2023-04-30T11:42:04.222Z,1.90
2023-04-30T11:44:31.146Z,1.65
2023-04-30T11:46:58.867Z,1.67
2023-04-30T11:49:27.130Z,2.08
2023-04-30T11:51:53.910Z,2.08
2023-04-30T11:54:20.703Z,1.90
2023-04-30T11:56:49.178Z,2.65
2023-04-30T11:59:17.006Z,1.98
2023-04-30T12:01:44.590Z,1.60
2023-04-30T12:06:37.055Z,1.67
2023-04-30T12:09:07.403Z,1.95
2023-04-30T12:11:35.739Z,2.15
2023-04-30T12:14:07.895Z,1.95
2023-04-30T12:16:51.284Z,1.50
2023-04-30T12:19:19.510Z,1.73
2023-04-30T12:21:48.540Z,1.60
2023-04-30T12:24:17.713Z,1.50
2023-04-30T12:26:45.237Z,1.30
2023-04-30T12:29:15.881Z,1.60
2023-04-30T12:31:43.795Z,1.30
2023-04-30T12:34:12.701Z,1.33
2023-04-30T12:36:42.893Z,1.00
2023-04-30T12:39:20.827Z,1.45
2023-04-30T12:41:49.529Z,1.75
2023-04-30T12:44:27.660Z,1.30
2023-04-30T12:46:57.385Z,1.38
2023-04-30T12:49:29.679Z,2.00
2023-04-30T12:52:09.030Z,3.72
2023-04-30T12:54:36.942Z,1.65
2023-04-30T12:57:12.467Z,1.58
2023-04-30T12:59:59.404Z,1.60
2023-04-30T13:02:28.745Z,1.65
2023-04-30T13:04:55.697Z,1.50
2023-04-30T13:07:23.267Z,1.55
2023-04-30T13:09:50.120Z,1.50
2023-04-30T13:12:17.236Z,1.33
2023-04-30T13:14:44.980Z,2.13
2023-04-30T13:17:14.154Z,2.58
2023-04-30T13:19:41.221Z,1.85
2023-04-30T13:22:08.076Z,2.08
2023-04-30T13:24:36.325Z,1.58
2023-04-30T13:27:04.350Z,1.70
2023-04-30T13:29:32.045Z,1.67
2023-04-30T13:31:59.369Z,1.50
2023-04-30T13:34:26.665Z,1.90
2023-04-30T13:36:57.322Z,4.13
2023-04-30T13:39:29.245Z,2.88
2023-04-30T13:44:24.750Z,2.35
2023-04-30T13:46:52.357Z,2.60
2023-04-30T13:49:19.485Z,2.15
2023-04-30T13:51:46.067Z,2.63
2023-04-30T13:54:12.696Z,2.50
2023-04-30T13:56:42.998Z,2.88
2023-04-30T13:59:09.734Z,2.42
2023-04-30T14:01:37.366Z,3.35
2023-04-30T14:04:04.889Z,2.22
2023-04-30T14:06:32.134Z,3.40
2023-04-30T14:08:58.797Z,1.77
2023-04-30T14:11:27.512Z,2.13
2023-04-30T14:13:55.227Z,4.25
2023-04-30T14:16:23.021Z,2.15
2023-04-30T14:18:49.892Z,2.35
2023-04-30T14:21:16.598Z,2.25
2023-04-30T14:23:46.546Z,1.83
2023-04-30T14:26:13.363Z,2.00
2023-04-30T14:28:40.098Z,2.47
2023-04-30T14:31:06.864Z,2.33
2023-04-30T14:33:33.459Z,2.88
2023-04-30T14:36:03.186Z,2.85
2023-04-30T14:38:29.786Z,2.20
2023-04-30T14:40:56.417Z,1.95
2023-04-30T14:43:23.684Z,1.70
2023-04-30T14:45:52.068Z,2.30
2023-04-30T14:48:18.709Z,1.88
2023-04-30T14:50:49.280Z,1.52
2023-04-30T14:53:16.421Z,1.58
2023-04-30T14:55:43.954Z,1.50
2023-04-30T15:01:10.865Z,1.88
2023-04-30T15:03:41.020Z,1.20
2023-04-30T15:06:08.898Z,1.48
2023-04-30T15:08:36.737Z,1.80
2023-04-30T15:11:07.641Z,1.70
2023-04-30T15:13:35.053Z,1.60
2023-04-30T15:16:02.358Z,1.40
2023-04-30T15:18:29.838Z,1.52
2023-04-30T15:20:56.791Z,1.70
2023-04-30T15:23:24.154Z,1.90
2023-04-30T15:26:05.825Z,2.28
2023-04-30T15:31:32.319Z,2.05
2023-04-30T15:34:01.066Z,1.67
2023-04-30T15:36:28.792Z,1.60
2023-04-30T15:38:56.598Z,1.60
2023-04-30T15:41:24.902Z,1.48
2023-04-30T15:43:52.250Z,1.70
2023-04-30T15:46:26.021Z,1.25
2023-04-30T15:48:53.482Z,1.10
2023-04-30T15:51:27.354Z,1.30
2023-04-30T15:54:03.458Z,1.23
2023-04-30T15:56:32.039Z,1.23
2023-04-30T15:59:05.981Z,0.93
2023-04-30T16:01:34.102Z,1.27
2023-04-30T16:04:01.514Z,1.30
2023-04-30T16:06:30.239Z,1.60
2023-04-30T16:08:57.340Z,1.60
2023-04-30T16:11:24.533Z,1.40
2023-04-30T16:14:14.236Z,1.40
2023-04-30T16:16:41.516Z,1.23
2023-04-30T16:19:30.763Z,1.65
2023-04-30T16:21:58.410Z,1.88
2023-04-30T16:24:38.971Z,3.75
2023-04-30T16:27:15.439Z,2.30
2023-04-30T16:29:43.604Z,1.70
2023-04-30T16:32:13.051Z,1.58
2023-04-30T16:34:41.289Z,1.75
2023-04-30T16:37:07.874Z,1.17
2023-04-30T16:39:34.542Z,1.88
2023-04-30T16:42:02.357Z,2.60
2023-04-30T16:44:28.990Z,2.65
2023-04-30T16:46:58.247Z,1.88
2023-04-30T16:49:24.975Z,2.67
2023-04-30T16:51:51.820Z,2.05
2023-04-30T16:54:18.896Z,1.48
2023-04-30T16:56:45.615Z,1.45
2023-04-30T16:59:12.315Z,2.17
2023-04-30T17:01:39.200Z,2.03
2023-04-30T17:04:07.236Z,2.50
2023-04-30T17:07:11.980Z,2.17
2023-04-30T17:09:38.637Z,2.08
2023-04-30T17:12:05.601Z,1.80
2023-04-30T17:14:34.264Z,2.78
2023-04-30T17:17:01.982Z,2.72
2023-04-30T17:19:28.877Z,2.47
2023-04-30T17:21:57.179Z,2.22
2023-04-30T17:24:24.390Z,1.83
2023-04-30T17:26:51.756Z,2.08
2023-04-30T17:29:22.803Z,1.85
2023-04-30T17:31:50.107Z,2.45
2023-04-30T17:34:17.733Z,2.53
2023-04-30T17:36:44.947Z,2.83
2023-04-30T17:39:13.026Z,3.55
2023-04-30T17:41:41.182Z,3.30
2023-04-30T17:44:08.520Z,3.38
2023-04-30T17:46:35.900Z,3.58
2023-04-30T17:49:03.715Z,3.65
2023-04-30T17:51:31.799Z,3.65
2023-04-30T17:54:02.724Z,4.18
2023-04-30T17:56:33.448Z,3.97
2023-04-30T17:59:01.134Z,3.40
2023-04-30T18:01:28.185Z,3.90
2023-04-30T18:03:55.527Z,3.40
2023-04-30T18:06:22.350Z,3.95
2023-04-30T18:08:49.409Z,4.30
2023-04-30T18:11:16.737Z,3.53
2023-04-30T18:13:43.790Z,3.80
2023-04-30T18:16:10.840Z,3.25
2023-04-30T18:18:37.703Z,4.32
2023-04-30T18:21:08.914Z,4.20
2023-04-30T18:23:37.302Z,4.27
2023-04-30T18:26:05.151Z,3.80
2023-04-30T18:28:31.838Z,4.10
2023-04-30T18:30:58.537Z,3.33
2023-04-30T18:33:26.319Z,4.55
2023-04-30T18:35:53.239Z,4.65
2023-04-30T18:38:20.867Z,4.53
2023-04-30T18:40:47.664Z,5.07
2023-04-30T18:43:16.392Z,6.80
2023-04-30T18:45:43.179Z,7.13
2023-04-30T18:48:10.098Z,10.00
2023-04-30T18:50:37.384Z,16.30
2023-04-30T18:53:04.725Z,22.13
2023-04-30T18:55:31.601Z,33.65
2023-04-30T18:57:58.817Z,27.25
2023-04-30T19:00:25.972Z,29.55
2023-04-30T19:02:52.849Z,13.93
2023-04-30T19:05:19.916Z,6.60
2023-04-30T19:07:46.907Z,6.07
2023-04-30T19:10:13.811Z,5.50
2023-04-30T19:12:41.530Z,7.07
2023-04-30T19:15:10.004Z,7.47
2023-04-30T19:17:36.755Z,7.22
2023-04-30T19:20:04.132Z,8.60
2023-04-30T19:22:31.189Z,7.78
2023-04-30T19:25:01.254Z,7.95
2023-04-30T19:27:28.237Z,8.30
2023-04-30T19:29:55.279Z,8.32
2023-04-30T19:32:22.191Z,9.52
2023-04-30T19:34:49.042Z,8.73
2023-04-30T19:37:15.795Z,5.88
2023-04-30T19:39:43.219Z,5.10
2023-04-30T19:42:10.092Z,4.03
2023-04-30T19:44:37.091Z,2.88
2023-04-30T19:47:05.104Z,3.42
2023-04-30T19:49:34.413Z,3.33
2023-04-30T19:52:02.423Z,2.80
2023-04-30T19:54:29.110Z,2.85
2023-04-30T19:56:56.041Z,3.92
2023-04-30T19:59:22.950Z,3.47
2023-04-30T20:01:50.129Z,2.95
2023-04-30T20:04:17.002Z,3.88
2023-04-30T20:06:44.960Z,4.53
2023-04-30T20:09:12.035Z,4.05
2023-04-30T20:11:38.839Z,4.35
2023-04-30T20:14:05.717Z,3.90
2023-04-30T20:16:32.687Z,4.10
2023-04-30T20:18:59.605Z,2.97
2023-04-30T20:21:26.434Z,3.53
2023-04-30T20:23:53.403Z,3.30
2023-04-30T20:26:21.617Z,3.35
2023-04-30T20:28:48.417Z,3.15
2023-04-30T20:31:15.367Z,3.33
2023-04-30T20:33:42.450Z,3.75
2023-04-30T20:36:09.203Z,2.60
2023-04-30T20:38:36.228Z,2.45
2023-04-30T20:41:02.905Z,2.75
2023-04-30T20:43:29.698Z,2.90
2023-04-30T20:45:58.906Z,3.75
2023-04-30T20:48:26.441Z,2.67
2023-04-30T20:50:53.052Z,2.67
2023-04-30T20:53:19.953Z,2.42
2023-04-30T20:55:46.597Z,3.25
2023-04-30T20:58:13.244Z,2.17
2023-04-30T21:00:40.113Z,2.92
2023-04-30T21:03:07.015Z,2.60
2023-04-30T21:05:34.356Z,2.20
2023-04-30T21:08:01.920Z,2.83
2023-04-30T21:10:36.229Z,2.60
2023-04-30T21:13:08.872Z,2.50
2023-04-30T21:15:36.382Z,2.50
2023-04-30T21:18:03.482Z,3.08
2023-04-30T21:20:31.657Z,3.08
2023-04-30T21:22:58.618Z,2.92
2023-04-30T21:25:25.252Z,3.28
2023-04-30T21:27:52.310Z,2.65
2023-04-30T21:30:19.210Z,3.03
2023-04-30T21:32:48.848Z,2.97
2023-04-30T21:35:15.842Z,2.90
2023-04-30T21:37:42.563Z,2.60
2023-04-30T21:40:09.647Z,2.67
2023-04-30T21:42:36.453Z,2.72
2023-04-30T21:45:03.450Z,2.53
2023-04-30T21:47:30.843Z,2.78
2023-04-30T21:49:58.830Z,2.97
2023-04-30T21:52:25.962Z,2.70
2023-04-30T21:54:52.634Z,2.20
2023-04-30T21:57:19.573Z,2.55
2023-04-30T21:59:46.224Z,2.17
2023-04-30T22:02:23.316Z,2.53
2023-04-30T22:04:51.247Z,2.63
2023-04-30T22:07:18.293Z,2.03
2023-04-30T22:09:45.065Z,8.48
2023-04-30T22:12:12.276Z,3.13
2023-04-30T22:14:39.232Z,3.42
2023-04-30T22:17:06.014Z,2.90
2023-04-30T22:19:32.631Z,3.03
2023-04-30T22:21:59.719Z,3.90
2023-04-30T22:24:26.332Z,3.90
2023-04-30T22:26:52.959Z,3.15
2023-04-30T22:29:19.945Z,5.15
2023-04-30T22:31:46.989Z,3.60
2023-04-30T22:34:15.515Z,3.40
2023-04-30T22:36:43.626Z,2.67
2023-04-30T22:39:10.245Z,3.85
2023-04-30T22:41:36.922Z,2.10
2023-04-30T22:44:04.748Z,2.40
2023-04-30T22:46:33.575Z,2.42
2023-04-30T22:49:01.056Z,2.35
2023-04-30T22:51:27.680Z,1.98
2023-04-30T22:53:55.497Z,1.70
2023-04-30T22:56:23.355Z,1.77
2023-04-30T22:58:50.079Z,1.40
2023-04-30T23:01:16.960Z,1.80
2023-04-30T23:03:43.768Z,1.60
2023-04-30T23:06:11.086Z,1.88
2023-04-30T23:08:37.855Z,1.50
2023-04-30T23:11:05.314Z,1.48
2023-04-30T23:13:32.024Z,1.40
2023-04-30T23:15:59.542Z,1.88
2023-04-30T23:18:26.369Z,1.55
2023-04-30T23:20:59.011Z,1.60
2023-04-30T23:23:26.791Z,1.70
2023-04-30T23:25:54.744Z,1.40
2023-04-30T23:28:22.473Z,1.98
2023-04-30T23:30:52.629Z,1.95
2023-04-30T23:33:19.947Z,1.90
2023-04-30T23:35:47.090Z,2.08
2023-04-30T23:38:14.888Z,1.70
2023-04-30T23:40:42.326Z,1.77
2023-04-30T23:43:09.554Z,1.45
2023-04-30T23:45:36.175Z,1.48
2023-04-30T23:48:02.905Z,1.58
2023-04-30T23:50:29.625Z,1.27
2023-04-30T23:52:56.255Z,1.63
2023-04-30T23:55:22.920Z,1.35
2023-04-30T23:57:49.517Z,1.17
